createdAt,value
2023-04-05T00:01:51.583Z,2.93
2023-04-05T00:07:48.535Z,3.23
2023-04-05T00:13:41.498Z,2.80
2023-04-05T00:19:38.419Z,2.57
2023-04-05T00:25:31.807Z,2.77
2023-04-05T00:31:25.283Z,2.70
2023-04-05T00:37:20.149Z,2.80
2023-04-05T00:43:13.543Z,3.00
2023-04-05T00:49:06.986Z,2.33
2023-04-05T00:55:01.776Z,2.60
2023-04-05T01:01:05.770Z,2.07
2023-04-05T01:07:08.446Z,2.20
2023-04-05T01:13:03.491Z,2.03
2023-04-05T01:18:58.369Z,2.37
2023-04-05T01:25:06.867Z,1.97
2023-04-05T01:31:08.303Z,1.70
2023-04-05T01:37:04.514Z,1.50
2023-04-05T01:42:57.837Z,1.77
2023-04-05T01:48:52.340Z,1.23
2023-04-05T01:54:46.056Z,1.63
2023-04-05T02:00:39.561Z,1.27
2023-04-05T02:06:34.088Z,2.10
2023-04-05T02:12:28.142Z,1.43
2023-04-05T02:18:22.565Z,1.90
2023-04-05T02:24:17.328Z,1.67
2023-04-05T02:30:14.079Z,1.63
2023-04-05T02:36:09.615Z,1.70
2023-04-05T02:42:03.934Z,1.60
2023-04-05T02:47:56.938Z,1.67
2023-04-05T02:53:50.250Z,1.43
2023-04-05T02:59:45.195Z,1.70
2023-04-05T03:05:38.910Z,1.40
2023-04-05T03:11:33.998Z,2.20
2023-04-05T03:17:28.841Z,1.80
2023-04-05T03:23:29.608Z,1.47
2023-04-05T03:29:23.581Z,1.90
2023-04-05T03:35:20.258Z,1.80
2023-04-05T03:41:14.158Z,1.67
2023-04-05T03:47:08.120Z,1.50
2023-04-05T03:53:03.527Z,2.20
2023-04-05T03:58:57.373Z,2.07
2023-04-05T04:04:54.370Z,2.37
2023-04-05T04:10:49.157Z,1.90
2023-04-05T04:16:49.458Z,2.10
2023-04-05T04:23:10.306Z,1.87
2023-04-05T04:29:30.578Z,1.93
2023-04-05T04:35:46.957Z,1.80
2023-04-05T04:41:59.585Z,1.97
2023-04-05T04:48:10.105Z,1.80
2023-04-05T04:54:07.328Z,2.00
2023-04-05T05:00:00.584Z,2.03
2023-04-05T05:05:55.151Z,2.40
2023-04-05T05:11:54.139Z,2.40
2023-04-05T05:17:47.274Z,1.97
2023-04-05T05:23:41.897Z,2.50
2023-04-05T05:29:34.904Z,2.50
2023-04-05T05:35:27.922Z,1.93
2023-04-05T05:41:22.578Z,3.20
2023-04-05T05:47:16.084Z,3.47
2023-04-05T05:53:09.092Z,3.27
2023-04-05T05:59:04.307Z,3.23
2023-04-05T06:04:58.385Z,3.67
2023-04-05T06:10:52.057Z,3.60
2023-04-05T06:16:46.618Z,4.37
2023-04-05T06:22:41.055Z,4.70
2023-04-05T06:28:33.990Z,4.40
2023-04-05T06:34:28.484Z,4.60
2023-04-05T06:40:22.087Z,4.53
2023-04-05T06:46:15.117Z,4.80
2023-04-05T06:52:09.544Z,5.00
2023-04-05T06:58:02.538Z,5.17
2023-04-05T07:03:55.877Z,6.00
2023-04-05T07:09:50.320Z,4.87
2023-04-05T07:15:43.692Z,5.50
2023-04-05T07:21:36.908Z,5.30
2023-04-05T07:27:31.431Z,5.20
2023-04-05T07:33:24.751Z,5.30
2023-04-05T07:39:18.441Z,4.97
2023-04-05T07:45:13.335Z,4.90
2023-04-05T07:51:07.491Z,5.17
2023-04-05T07:57:01.248Z,3.93
2023-04-05T08:02:57.316Z,4.20
2023-04-05T08:08:52.493Z,3.27
2023-04-05T08:14:45.664Z,3.90
2023-04-05T08:20:40.967Z,4.20
2023-04-05T08:26:34.134Z,3.73
2023-04-05T08:32:27.090Z,3.30
2023-04-05T08:38:21.714Z,2.73
2023-04-05T08:44:15.491Z,2.90
2023-04-05T08:50:13.559Z,2.80
2023-04-05T08:56:09.058Z,2.83
2023-04-05T09:02:05.252Z,3.73
2023-04-05T09:07:59.861Z,3.17
2023-04-05T09:13:54.408Z,3.40
2023-04-05T09:19:50.055Z,3.50
2023-04-05T09:25:43.567Z,3.00
2023-04-05T09:31:38.318Z,3.47
2023-04-05T09:37:37.795Z,3.00
2023-04-05T09:43:37.965Z,3.63
2023-04-05T09:49:34.807Z,4.03
2023-04-05T09:55:29.586Z,3.83
2023-04-05T10:01:22.619Z,3.50
2023-04-05T10:07:18.545Z,4.73
2023-04-05T10:13:12.054Z,3.77
2023-04-05T10:19:10.331Z,2.90
2023-04-05T10:25:14.500Z,3.00
2023-04-05T10:31:15.347Z,2.73
2023-04-05T10:37:19.520Z,3.30
2023-04-05T10:43:18.581Z,3.40
2023-04-05T10:49:21.646Z,3.60
2023-04-05T10:55:15.510Z,3.30
2023-04-05T11:01:10.992Z,3.30
2023-04-05T11:07:15.536Z,3.47
2023-04-05T11:13:12.004Z,2.63
2023-04-05T11:19:07.101Z,3.10
2023-04-05T11:25:02.851Z,3.33
2023-04-05T11:30:58.789Z,3.70
2023-04-05T11:36:53.616Z,3.13
2023-04-05T11:42:46.825Z,2.77
2023-04-05T11:48:42.055Z,3.40
2023-04-05T11:54:37.517Z,2.77
2023-04-05T12:00:30.510Z,3.20
2023-04-05T12:06:24.221Z,3.90
2023-04-05T12:12:19.465Z,3.27
2023-04-05T12:18:16.071Z,3.97
2023-04-05T12:24:09.865Z,2.93
2023-04-05T12:30:18.477Z,2.93
2023-04-05T12:36:12.132Z,3.07
2023-04-05T12:42:05.420Z,3.17
2023-04-05T12:48:01.261Z,3.07
2023-04-05T12:53:58.547Z,2.70
2023-04-05T12:59:51.710Z,2.60
2023-04-05T13:05:46.026Z,2.80
2023-04-05T13:11:39.081Z,2.70
2023-04-05T13:17:32.053Z,2.70
2023-04-05T13:23:26.385Z,2.17
2023-04-05T13:29:19.555Z,2.63
2023-04-05T13:35:13.138Z,2.00
2023-04-05T13:41:07.949Z,2.90
2023-04-05T13:47:01.142Z,2.70
2023-04-05T13:52:54.087Z,2.60
2023-04-05T13:58:48.707Z,2.73
2023-04-05T14:04:42.150Z,3.07
2023-04-05T14:10:35.458Z,3.00
2023-04-05T14:16:30.560Z,2.93
2023-04-05T14:22:23.915Z,2.70
2023-04-05T14:28:17.257Z,2.70
2023-04-05T14:34:12.022Z,2.33
2023-04-05T14:40:05.804Z,2.60
2023-04-05T14:45:58.929Z,2.33
2023-04-05T14:51:53.618Z,2.37
2023-04-05T14:57:46.981Z,2.30
2023-04-05T15:03:40.313Z,2.33
2023-04-05T15:09:36.149Z,2.30
2023-04-05T15:15:29.462Z,2.57
2023-04-05T15:21:22.962Z,2.77
2023-04-05T15:27:17.442Z,3.83
2023-04-05T15:33:10.927Z,3.20
2023-04-05T15:39:05.355Z,3.53
2023-04-05T15:44:59.958Z,3.00
2023-04-05T15:50:53.292Z,2.83
2023-04-05T15:56:46.946Z,2.33
2023-04-05T16:02:41.741Z,2.40
2023-04-05T16:08:35.723Z,2.23
2023-04-05T16:14:29.601Z,2.70
2023-04-05T16:20:24.325Z,2.57
2023-04-05T16:26:17.666Z,2.77
2023-04-05T16:32:11.423Z,2.23
2023-04-05T16:38:06.436Z,2.73
2023-04-05T16:44:00.064Z,2.30
2023-04-05T16:49:53.235Z,3.33
2023-04-05T16:55:47.978Z,2.37
2023-04-05T17:01:41.416Z,1.73
2023-04-05T17:07:34.658Z,1.97
2023-04-05T17:13:29.377Z,1.70
2023-04-05T17:19:22.760Z,1.50
2023-04-05T17:25:16.018Z,2.00
2023-04-05T17:31:10.825Z,2.10
2023-04-05T17:37:04.259Z,2.57
2023-04-05T17:42:57.571Z,2.30
2023-04-05T17:48:52.827Z,2.60
2023-04-05T17:54:45.927Z,2.50
2023-04-05T18:00:39.208Z,2.20
2023-04-05T18:06:33.729Z,2.07
2023-04-05T18:12:27.106Z,2.70
2023-04-05T18:18:20.226Z,2.20
2023-04-05T18:24:15.625Z,2.27
2023-04-05T18:30:10.181Z,2.40
2023-04-05T18:36:04.583Z,2.60
2023-04-05T18:41:59.443Z,2.50
2023-04-05T18:47:52.626Z,2.97
2023-04-05T18:53:45.966Z,3.50
2023-04-05T18:59:41.004Z,3.97
2023-04-05T19:05:34.635Z,4.30
2023-04-05T19:11:27.761Z,4.63
2023-04-05T19:17:22.714Z,4.60
2023-04-05T19:23:15.865Z,3.90
2023-04-05T19:29:09.520Z,3.50
2023-04-05T19:35:04.598Z,3.53
2023-04-05T19:40:58.129Z,3.83
2023-04-05T19:46:51.712Z,4.00
2023-04-05T19:52:49.155Z,3.70
2023-04-05T19:58:43.786Z,4.20
2023-04-05T20:04:39.346Z,6.17
2023-04-05T20:10:41.817Z,3.97
2023-04-05T20:16:36.179Z,4.23
2023-04-05T20:22:30.465Z,3.80
2023-04-05T20:28:35.110Z,3.80
2023-04-05T20:34:31.753Z,4.20
2023-04-05T20:40:25.333Z,3.47
2023-04-05T20:46:19.851Z,3.40
2023-04-05T20:52:14.217Z,3.47
2023-04-05T20:58:08.023Z,3.17
2023-04-05T21:04:02.962Z,2.90
2023-04-05T21:09:56.540Z,2.90
2023-04-05T21:15:50.146Z,3.70
2023-04-05T21:21:45.080Z,2.90
2023-04-05T21:27:38.590Z,2.97
2023-04-05T21:33:32.114Z,3.10
2023-04-05T21:39:26.710Z,3.73
2023-04-05T21:45:20.260Z,12.37
2023-04-05T21:51:13.361Z,6.00
2023-04-05T21:57:08.452Z,3.67
2023-04-05T22:03:02.135Z,3.30
2023-04-05T22:08:55.250Z,4.23
2023-04-05T22:14:50.323Z,3.43
2023-04-05T22:20:43.860Z,4.07
2023-04-05T22:26:37.479Z,3.60
2023-04-05T22:32:32.424Z,3.60
2023-04-05T22:38:26.129Z,3.00
2023-04-05T22:44:19.658Z,3.53
2023-04-05T22:50:14.180Z,3.00
2023-04-05T22:56:08.330Z,3.00
2023-04-05T23:02:01.906Z,3.60
2023-04-05T23:07:56.677Z,4.23
2023-04-05T23:13:49.915Z,3.60
2023-04-05T23:19:43.510Z,2.90
2023-04-05T23:25:38.404Z,2.63
2023-04-05T23:31:32.046Z,3.20
2023-04-05T23:37:25.591Z,3.00
2023-04-05T23:43:20.464Z,3.00
2023-04-05T23:49:13.554Z,2.70
2023-04-05T23:55:07.710Z,2.50
